Time;durP1;ratioP1;P1;durP2;ratioP2;P2;SDS_P1;SDS_P2;PMS_P1;PMS_P2;Temp;Humidity;BMP_temperature;BMP_pressure;BME280_temperature;BME280_humidity;BME280_pressure;Samples;Min_cycle;Max_cycle;Signal;HPM_P1;HPM_P2
2023/05/25 00:02:14;;;;;;;0.75;0.75;;;;;;;13.29;56.71;101878.63;5177390;28;20869;-88
2023/05/25 00:05:07;;;;;;;2.92;1.65;;;;;;;13.36;56.59;101871.44;5179849;28;20025;-87
2023/05/25 00:08:00;;;;;;;;;;;;;;;13.30;56.75;101876.84;5177638;28;20108;-88
2023/05/25 00:10:51;;;;;;;0.60;0.60;;;;;;;13.28;56.83;101876.00;5177211;28;19913;-88
2023/05/25 00:13:41;;;;;;;0.35;0.35;;;;;;;13.23;57.40;101870.81;5189666;28;20029;-86
2023/05/25 00:16:36;;;;;;;5.53;0.93;;;;;;;13.28;56.62;101873.38;5205908;28;20037;-88
2023/05/25 00:19:26;;;;;;;0.85;0.85;;;;;;;13.21;56.55;101876.13;5189732;28;20033;-86
2023/05/25 00:22:19;;;;;;;2.35;1.17;;;;;;;13.20;56.96;101877.03;5190881;28;20037;-87
2023/05/25 00:25:10;;;;;;;0.32;0.32;;;;;;;13.21;57.30;101870.84;5206139;28;20073;-87
2023/05/25 00:28:03;;;;;;;1.08;1.00;;;;;;;13.26;57.05;101878.69;5185416;28;20041;-88
2023/05/25 00:30:54;;;;;;;4.20;1.73;;;;;;;13.21;56.95;101860.31;5186618;28;20076;-89
2023/05/25 00:33:45;;;;;;;1.10;1.10;;;;;;;13.16;56.71;101864.81;5181017;28;20040;-88
2023/05/25 00:36:36;;;;;;;1.55;1.10;;;;;;;13.15;56.56;101843.75;5175242;28;20034;-88
2023/05/25 00:39:27;;;;;;;1.25;1.25;;;;;;;13.09;58.23;101855.31;5182733;28;20040;-87
2023/05/25 00:42:18;;;;;;;6.43;0.90;;;;;;;12.98;57.89;101852.00;5173464;28;20057;-87
2023/05/25 00:45:09;;;;;;;2.33;1.90;;;;;;;13.01;57.02;101854.59;5176061;28;20036;-88
2023/05/25 00:48:00;;;;;;;1.35;0.93;;;;;;;13.05;57.18;101853.59;5174899;28;20144;-87
2023/05/25 00:50:56;;;;;;;0.60;0.60;;;;;;;12.99;58.29;101853.75;5173999;28;20080;-88
2023/05/25 00:53:47;;;;;;;0.65;0.65;;;;;;;13.02;57.31;101854.53;5173384;28;20039;-88
2023/05/25 00:56:41;;;;;;;0.55;0.55;;;;;;;12.95;57.37;101852.03;5190079;28;20037;-89
2023/05/25 00:59:47;;;;;;;2.67;2.13;;;;;;;12.95;57.37;101858.19;5189358;28;20022;-87
2023/05/25 01:02:39;;;;;;;0.52;0.52;;;;;;;12.92;57.67;101860.88;5187607;28;20036;-88
2023/05/25 01:05:33;;;;;;;1.27;1.27;;;;;;;12.92;56.95;101858.25;5206802;28;20033;-88
2023/05/25 01:08:25;;;;;;;;;;;;;;;12.91;57.03;101865.28;5175058;28;20497;-88
2023/05/25 01:11:18;;;;;;;1.23;1.20;;;;;;;12.89;57.03;101864.44;5212093;28;20166;-90
2023/05/25 01:14:09;;;;;;;0.30;0.30;;;;;;;12.87;57.37;101866.22;5220592;28;20057;-89
2023/05/25 01:17:02;;;;;;;1.13;1.13;;;;;;;12.84;57.19;101866.31;5203212;28;20029;-88
2023/05/25 01:19:52;;;;;;;1.10;1.00;;;;;;;12.83;57.18;101864.56;5197275;28;20108;-87
2023/05/25 01:22:53;;;;;;;0.85;0.85;;;;;;;12.77;57.45;101871.69;5201572;28;20033;-88
2023/05/25 01:25:49;;;;;;;0.57;0.57;;;;;;;12.77;57.67;101863.78;5173663;28;20061;-88
2023/05/25 01:28:45;;;;;;;0.75;0.75;;;;;;;12.78;56.81;101873.44;5177258;28;20058;-87
2023/05/25 01:31:37;;;;;;;0.85;0.85;;;;;;;12.71;57.91;101875.31;5173593;28;20504;-87
2023/05/25 01:34:30;;;;;;;1.15;1.15;;;;;;;12.63;57.07;101871.94;5181433;28;20486;-88
2023/05/25 01:37:23;;;;;;;0.35;0.35;;;;;;;12.65;57.34;101871.00;5171448;28;20045;-87
2023/05/25 01:40:14;;;;;;;0.57;0.57;;;;;;;12.63;57.42;101875.44;5188588;28;20025;-87
2023/05/25 01:43:05;;;;;;;0.77;0.77;;;;;;;12.55;56.85;101882.63;5176468;28;20026;-88
2023/05/25 01:46:05;;;;;;;0.68;0.65;;;;;;;12.53;57.79;101885.25;5182714;28;20026;-88
2023/05/25 01:49:07;;;;;;;5.88;2.58;;;;;;;12.48;57.65;101880.97;5175975;28;20041;-87
2023/05/25 01:52:04;;;;;;;1.75;1.42;;;;;;;12.47;58.59;101887.13;5195971;28;20029;-89
2023/05/25 01:55:04;;;;;;;0.60;0.60;;;;;;;12.40;57.48;101878.47;5203409;28;20038;-87
2023/05/25 01:57:58;;;;;;;2.05;1.08;;;;;;;12.51;57.97;101889.69;5177803;28;20097;-87
2023/05/25 02:00:50;;;;;;;0.63;0.63;;;;;;;12.46;57.81;101880.97;5186088;28;20141;-88
2023/05/25 02:03:41;;;;;;;0.40;0.40;;;;;;;12.41;58.21;101877.56;5187926;28;20304;-88
2023/05/25 02:06:35;;;;;;;2.58;2.10;;;;;;;12.36;58.30;101872.38;5198841;28;20136;-88
2023/05/25 02:09:26;;;;;;;;;;;;;;;12.35;58.04;101872.41;5176922;28;20024;-88
2023/05/25 02:12:17;;;;;;;0.50;0.50;;;;;;;12.32;57.77;101873.31;5180191;28;19913;-89
2023/05/25 02:15:09;;;;;;;0.63;0.63;;;;;;;12.27;58.17;101865.47;5189265;28;20116;-87
2023/05/25 02:18:00;;;;;;;1.08;0.85;;;;;;;12.23;58.34;101870.84;5184184;28;20029;-88
2023/05/25 02:20:51;;;;;;;0.47;0.38;;;;;;;12.20;58.05;101874.38;5184307;28;20036;-88
2023/05/25 02:23:42;;;;;;;0.60;0.60;;;;;;;12.18;57.64;101873.53;5179029;28;20451;-87
2023/05/25 02:26:33;;;;;;;1.55;1.45;;;;;;;12.14;58.74;101871.84;5200010;28;20046;-88
2023/05/25 02:29:23;;;;;;;1.55;1.13;;;;;;;12.17;57.93;101879.69;5183544;28;20397;-88
2023/05/25 02:32:14;;;;;;;1.45;1.35;;;;;;;12.15;58.12;101880.63;5187236;28;20560;-88
2023/05/25 02:35:06;;;;;;;2.65;1.38;;;;;;;12.07;57.84;101878.94;5186746;28;20041;-87
2023/05/25 02:37:57;;;;;;;0.98;0.95;;;;;;;12.07;58.15;101876.31;5188690;28;20041;-87
2023/05/25 02:40:47;;;;;;;2.60;1.10;;;;;;;12.06;57.86;101871.97;5176949;28;20026;-88
2023/05/25 02:43:38;;;;;;;0.93;0.93;;;;;;;12.09;59.56;101876.31;5174975;28;20118;-87
2023/05/25 02:46:29;;;;;;;0.50;0.50;;;;;;;11.95;60.32;101879.97;5170380;28;20057;-87
2023/05/25 02:49:20;;;;;;;0.80;0.80;;;;;;;11.90;59.10;101887.06;5181778;28;20507;-87
2023/05/25 02:52:11;;;;;;;0.50;0.50;;;;;;;11.85;58.90;101888.91;5195365;28;20108;-88
2023/05/25 02:55:02;;;;;;;0.73;0.70;;;;;;;11.79;59.34;101888.94;5197123;28;20085;-88
2023/05/25 02:57:53;;;;;;;2.58;1.90;;;;;;;11.88;59.44;101890.59;5175726;28;20037;-88
2023/05/25 03:00:45;;;;;;;0.40;0.40;;;;;;;11.85;58.69;101898.53;5174683;28;20030;-88
2023/05/25 03:03:36;;;;;;;3.90;1.60;;;;;;;11.82;59.75;101895.03;5174610;28;20519;-87
2023/05/25 03:06:27;;;;;;;6.78;1.38;;;;;;;11.81;59.32;101900.34;5204829;28;20049;-87
2023/05/25 03:09:17;;;;;;;0.82;0.82;;;;;;;11.77;59.25;101894.25;5184215;28;20021;-88
2023/05/25 03:12:08;;;;;;;0.40;0.40;;;;;;;11.78;59.00;101898.63;5181777;28;20500;-87
2023/05/25 03:14:59;;;;;;;0.68;0.68;;;;;;;11.81;59.68;101902.97;5200947;28;20453;-87
2023/05/25 03:17:50;;;;;;;0.88;0.70;;;;;;;11.78;59.32;101905.63;5174762;28;20041;-88
2023/05/25 03:20:41;;;;;;;1.45;1.35;;;;;;;11.75;59.68;101917.06;5170460;28;20528;-87
2023/05/25 03:23:31;;;;;;;1.73;1.63;;;;;;;11.73;59.10;101917.97;5172952;28;20048;-88
2023/05/25 03:26:24;;;;;;;0.73;0.73;;;;;;;11.69;59.46;101921.53;5182681;28;20029;-88
2023/05/25 03:29:15;;;;;;;4.10;1.00;;;;;;;11.59;60.99;101913.75;5169941;28;20021;-87
2023/05/25 03:32:06;;;;;;;0.75;0.75;;;;;;;11.64;59.61;101914.56;5197478;28;20460;-87
2023/05/25 03:34:58;;;;;;;0.63;0.63;;;;;;;11.67;60.53;101921.53;5172811;28;20494;-87
2023/05/25 03:37:48;;;;;;;0.50;0.50;;;;;;;11.67;60.52;101920.69;5184733;28;20045;-87
2023/05/25 03:40:39;;;;;;;0.60;0.60;;;;;;;11.65;59.53;101921.56;5175201;28;20037;-87
2023/05/25 03:43:30;;;;;;;0.40;0.40;;;;;;;11.68;59.51;101925.06;5175327;28;20049;-88
2023/05/25 03:46:21;;;;;;;0.98;0.98;;;;;;;11.65;59.88;101923.34;5192438;28;20033;-87
2023/05/25 03:49:12;;;;;;;5.00;1.88;;;;;;;11.65;59.97;101928.59;5188448;28;20021;-88
2023/05/25 03:52:05;;;;;;;1.60;1.00;;;;;;;11.67;59.96;101936.44;5175028;28;20033;-87
2023/05/25 03:54:55;;;;;;;1.02;1.00;;;;;;;11.67;59.74;101932.06;5176213;28;20033;-87
2023/05/25 03:57:46;;;;;;;0.82;0.82;;;;;;;11.67;60.34;101936.44;5172553;28;20029;-88
2023/05/25 04:00:37;;;;;;;0.73;0.73;;;;;;;11.61;59.99;101935.63;5187217;28;20034;-88
2023/05/25 04:03:28;;;;;;;0.60;0.60;;;;;;;11.61;60.29;101942.66;5174082;28;20160;-87
2023/05/25 04:06:20;;;;;;;3.45;2.08;;;;;;;11.59;60.10;101945.31;5187088;28;20068;-87
2023/05/25 04:09:11;;;;;;;0.77;0.77;;;;;;;11.57;60.70;101941.81;5177954;28;20021;-87
2023/05/25 04:12:02;;;;;;;0.68;0.68;;;;;;;11.55;60.28;101943.59;5171945;28;20033;-87
2023/05/25 04:14:52;;;;;;;0.88;0.88;;;;;;;11.55;60.46;101948.84;5179407;28;20409;-88
2023/05/25 04:17:43;;;;;;;0.65;0.65;;;;;;;11.55;60.32;101946.22;5180412;28;20527;-88
2023/05/25 04:20:35;;;;;;;0.50;0.50;;;;;;;11.53;59.72;101942.72;5188031;28;20029;-88
2023/05/25 04:23:26;;;;;;;1.02;1.02;;;;;;;11.49;60.48;101957.66;5189429;28;20271;-88
2023/05/25 04:26:18;;;;;;;1.00;1.00;;;;;;;11.51;59.96;101965.56;5173413;28;20029;-89
2023/05/25 04:29:09;;;;;;;0.43;0.43;;;;;;;11.40;60.61;101960.41;5175933;28;20085;-86
2023/05/25 04:31:59;;;;;;;0.57;0.57;;;;;;;11.44;59.95;101971.75;5218225;28;20021;-87
2023/05/25 04:34:51;;;;;;;0.82;0.82;;;;;;;11.08;64.05;101971.22;5195936;28;20038;-88
2023/05/25 04:37:41;;;;;;;0.40;0.40;;;;;;;11.30;60.99;101975.38;5205014;28;20552;-89
2023/05/25 04:40:34;;;;;;;0.85;0.85;;;;;;;11.36;60.88;101984.97;5196329;28;20025;-88
2023/05/25 04:43:26;;;;;;;1.73;1.63;;;;;;;11.35;60.85;101977.97;5221802;28;20053;-88
2023/05/25 04:46:17;;;;;;;1.58;1.00;;;;;;;11.38;61.74;101977.06;5171030;28;20041;-88
2023/05/25 04:49:08;;;;;;;2.28;1.42;;;;;;;11.29;61.65;101973.63;5193147;28;20417;-88
2023/05/25 04:51:59;;;;;;;1.25;1.15;;;;;;;11.32;61.76;101978.03;5182708;28;20067;-88
2023/05/25 04:54:50;;;;;;;0.50;0.50;;;;;;;11.24;62.91;101982.47;5182569;28;20679;-87
2023/05/25 04:57:41;;;;;;;0.88;0.88;;;;;;;11.22;63.19;101981.63;5201686;28;20041;-87
2023/05/25 05:00:33;;;;;;;0.55;0.55;;;;;;;11.25;62.22;101979.81;5172594;28;20044;-88
2023/05/25 05:03:23;;;;;;;0.95;0.77;;;;;;;11.22;65.96;101982.47;5185769;28;20045;-88
2023/05/25 05:06:15;;;;;;;0.63;0.63;;;;;;;11.03;68.26;101981.78;5176325;28;20030;-87
2023/05/25 05:09:05;;;;;;;0.65;0.65;;;;;;;11.12;64.81;101986.94;5187379;28;20100;-88
2023/05/25 05:11:56;;;;;;;0.50;0.50;;;;;;;11.23;63.27;101983.38;5172473;28;20053;-88
2023/05/25 05:14:47;;;;;;;1.17;1.15;;;;;;;11.28;63.44;101992.91;5176361;28;20057;-87
2023/05/25 05:17:38;;;;;;;1.05;0.98;;;;;;;11.30;63.53;101988.53;5188363;28;20053;-89
2023/05/25 05:20:28;;;;;;;0.75;0.75;;;;;;;11.25;63.68;101992.06;5175434;28;20556;-89
2023/05/25 05:23:19;;;;;;;0.88;0.85;;;;;;;11.34;62.45;101992.00;5181832;28;20614;-88
2023/05/25 05:26:13;;;;;;;0.88;0.88;;;;;;;11.42;62.59;101999.81;5176495;28;20040;-88
2023/05/25 05:29:04;;;;;;;0.88;0.85;;;;;;;11.41;63.62;101998.06;5177232;28;20501;-87
2023/05/25 05:31:55;;;;;;;1.17;1.08;;;;;;;11.35;64.89;101999.00;5193157;28;20038;-88
2023/05/25 05:34:46;;;;;;;1.48;1.42;;;;;;;11.41;66.97;101998.91;5173257;28;20049;-88
2023/05/25 05:37:37;;;;;;;0.57;0.57;;;;;;;11.43;65.32;102001.56;5192887;28;20041;-87
2023/05/25 05:40:27;;;;;;;0.47;0.47;;;;;;;11.46;64.98;102007.66;5176971;28;20097;-87
2023/05/25 05:43:18;;;;;;;1.70;1.60;;;;;;;11.25;69.08;102002.59;5192021;28;20037;-87
2023/05/25 05:46:09;;;;;;;1.65;1.55;;;;;;;11.46;67.58;102009.38;5188929;28;20072;-87
2023/05/25 05:49:00;;;;;;;0.77;0.77;;;;;;;11.53;66.51;102008.44;5170479;28;20030;-88
2023/05/25 05:51:51;;;;;;;2.03;1.80;;;;;;;11.46;67.11;102017.28;5173345;28;20031;-86
2023/05/25 05:54:41;;;;;;;0.90;0.90;;;;;;;11.28;71.57;102019.19;5201654;28;20037;-86
2023/05/25 05:57:32;;;;;;;0.73;0.73;;;;;;;11.47;68.01;102021.66;5170732;28;20044;-87
2023/05/25 06:00:23;;;;;;;0.82;0.82;;;;;;;11.50;68.48;102019.00;5172926;28;20021;-86
2023/05/25 06:03:14;;;;;;;8.50;1.70;;;;;;;11.35;71.28;102030.53;5181501;28;20057;-86
2023/05/25 06:06:05;;;;;;;0.73;0.73;;;;;;;11.36;72.75;102031.41;5203441;28;20116;-85
2023/05/25 06:08:56;;;;;;;3.33;1.65;;;;;;;11.51;69.50;102031.25;5216064;28;20074;-86
2023/05/25 06:11:46;;;;;;;1.00;1.00;;;;;;;11.51;71.29;102033.88;5202023;28;20021;-86
2023/05/25 06:14:37;;;;;;;7.88;1.98;;;;;;;11.57;70.40;102041.69;5179009;28;20121;-86
2023/05/25 06:17:28;;;;;;;0.80;0.80;;;;;;;11.52;71.01;102046.16;5187194;28;20905;-86
2023/05/25 06:20:19;;;;;;;0.52;0.52;;;;;;;11.68;69.96;102038.97;5181557;28;20029;-86
2023/05/25 06:23:12;;;;;;;1.85;1.60;;;;;;;11.57;72.30;102040.84;5180898;28;20037;-86
2023/05/25 06:26:04;;;;;;;1.30;1.23;;;;;;;11.71;70.24;102048.56;5173700;28;20556;-86
2023/05/25 06:28:56;;;;;;;0.68;0.68;;;;;;;11.80;70.60;102045.84;5186795;28;20441;-84
2023/05/25 06:31:47;;;;;;;1.80;1.70;;;;;;;11.70;69.87;102046.81;5197780;28;20037;-86
2023/05/25 06:34:37;;;;;;;2.00;1.67;;;;;;;11.71;71.76;102045.94;5170793;28;20043;-87
2023/05/25 06:37:33;;;;;;;0.82;0.82;;;;;;;11.74;71.17;102048.53;5188163;28;20065;-86
2023/05/25 06:40:24;;;;;;;1.55;1.45;;;;;;;11.69;73.32;102055.63;5185630;28;20022;-86
2023/05/25 06:43:15;;;;;;;2.40;1.35;;;;;;;11.82;70.98;102058.06;5187290;28;20033;-86
2023/05/25 06:46:06;;;;;;;0.57;0.57;;;;;;;11.89;70.81;102052.78;5174479;28;20140;-86
2023/05/25 06:49:00;;;;;;;1.05;1.05;;;;;;;11.94;71.84;102049.19;5180022;28;20064;-85
2023/05/25 06:51:51;;;;;;;1.17;1.08;;;;;;;11.85;72.29;102054.56;5169353;28;20033;-86
2023/05/25 06:54:42;;;;;;;0.70;0.70;;;;;;;12.00;70.63;102061.44;5186967;28;20034;-86
2023/05/25 06:57:33;;;;;;;0.80;0.80;;;;;;;12.06;71.19;102060.50;5172565;28;20074;-86
2023/05/25 07:00:24;;;;;;;4.68;2.10;;;;;;;12.08;72.61;102064.84;5169565;28;20044;-84
2023/05/25 07:03:15;;;;;;;1.60;1.50;;;;;;;12.23;70.05;102063.78;5173364;28;20044;-85
2023/05/25 07:06:06;;;;;;;1.10;1.05;;;;;;;12.35;71.21;102064.53;5195294;28;20457;-85
2023/05/25 07:08:57;;;;;;;0.90;0.90;;;;;;;12.37;71.33;102068.00;5202843;28;20381;-85
2023/05/25 07:11:48;;;;;;;1.77;1.63;;;;;;;12.31;71.40;102065.44;5179639;28;20037;-86
2023/05/25 07:14:39;;;;;;;2.42;1.65;;;;;;;12.33;72.44;102074.19;5174004;28;20465;-85
2023/05/25 07:17:30;;;;;;;1.25;1.15;;;;;;;12.43;71.23;102078.47;5184527;28;20056;-86
2023/05/25 07:20:21;;;;;;;5.07;2.00;;;;;;;12.48;69.99;102067.88;5185076;28;20266;-85
2023/05/25 07:23:11;;;;;;;1.27;1.17;;;;;;;12.42;71.92;102068.81;5182187;28;20037;-86
2023/05/25 07:26:02;;;;;;;2.45;2.25;;;;;;;12.48;71.55;102074.00;5170053;28;20386;-86
2023/05/25 07:28:53;;;;;;;1.42;1.33;;;;;;;12.54;71.68;102073.06;5183136;28;20048;-86
2023/05/25 07:31:44;;;;;;;0.50;0.50;;;;;;;12.61;71.13;102077.34;5168190;28;20033;-86
2023/05/25 07:34:35;;;;;;;4.90;1.13;;;;;;;12.68;70.44;102075.50;5186956;28;20037;-87
2023/05/25 07:37:26;;;;;;;1.70;1.48;;;;;;;12.70;71.40;102078.97;5200870;28;20096;-86
2023/05/25 07:40:16;;;;;;;5.25;2.38;;;;;;;12.70;70.98;102076.31;5171449;28;20058;-86
2023/05/25 07:43:07;;;;;;;2.83;1.10;;;;;;;12.81;70.72;102079.69;5182893;28;20117;-86
2023/05/25 07:46:00;;;;;;;1.35;1.08;;;;;;;12.86;70.33;102077.84;5181719;28;20048;-88
2023/05/25 07:48:53;;;;;;;3.55;1.33;;;;;;;12.95;69.53;102075.97;5213226;28;20018;-86
2023/05/25 07:51:44;;;;;;;1.85;1.75;;;;;;;12.96;70.63;102075.06;5189420;28;20052;-87
2023/05/25 07:54:38;;;;;;;1.42;1.33;;;;;;;13.00;70.64;102071.50;5173597;28;20035;-87
2023/05/25 07:57:29;;;;;;;1.25;1.15;;;;;;;13.02;68.83;102081.13;5182671;28;20038;-86
2023/05/25 08:00:20;;;;;;;2.20;2.05;;;;;;;13.19;69.83;102086.13;5183637;28;20104;-85
2023/05/25 08:03:12;;;;;;;1.92;1.83;;;;;;;13.13;69.78;102083.59;5167807;28;20523;-86
2023/05/25 08:06:03;;;;;;;0.95;0.95;;;;;;;13.22;68.64;102080.81;5177707;28;20029;-86
2023/05/25 08:08:54;;;;;;;1.02;0.95;;;;;;;13.25;68.77;102081.66;5184810;28;20041;-86
2023/05/25 08:11:46;;;;;;;8.60;3.25;;;;;;;13.28;68.36;102082.47;5167610;28;20037;-85
2023/05/25 08:14:37;;;;;;;0.95;0.85;;;;;;;13.36;68.49;102087.59;5169552;28;20034;-86
2023/05/25 08:17:27;;;;;;;1.48;0.95;;;;;;;13.41;67.38;102079.66;5177471;28;20034;-86
2023/05/25 08:20:18;;;;;;;0.88;0.68;;;;;;;13.47;68.60;102076.94;5164855;28;20021;-87
2023/05/25 08:23:09;;;;;;;0.88;0.88;;;;;;;13.51;67.51;102073.31;5176310;28;20161;-88
2023/05/25 08:26:00;;;;;;;16.10;3.10;;;;;;;13.45;67.03;102079.56;5187162;28;20028;-87
2023/05/25 08:28:51;;;;;;;1.70;1.52;;;;;;;13.49;67.18;102081.28;5202714;28;20281;-84
2023/05/25 08:31:43;;;;;;;1.23;0.98;;;;;;;13.53;66.92;102082.94;5195724;28;20045;-85
2023/05/25 08:34:34;;;;;;;2.05;1.25;;;;;;;13.53;66.47;102082.09;5189793;28;20513;-85
2023/05/25 08:37:25;;;;;;;0.88;0.88;;;;;;;13.66;65.95;102077.47;5202499;28;20449;-85
2023/05/25 08:40:21;;;;;;;1.30;1.05;;;;;;;13.69;65.69;102082.66;5198947;28;20590;-86
2023/05/25 08:43:12;;;;;;;1.17;1.17;;;;;;;13.68;65.92;102088.84;5159764;28;20041;-86
2023/05/25 08:46:05;;;;;;;2.22;1.10;;;;;;;13.73;65.44;102094.03;5162907;28;20072;-86
2023/05/25 08:49:07;;;;;;;1.83;0.97;;;;;;;13.71;65.15;102086.16;5170035;28;20030;-85
2023/05/25 08:51:58;;;;;;;4.25;2.17;;;;;;;13.82;64.99;102084.19;5187941;28;20046;-85
2023/05/25 08:54:52;;;;;;;1.13;0.82;;;;;;;13.79;64.38;102094.78;5169607;28;20596;-84
2023/05/25 08:57:52;;;;;;;1.40;1.30;;;;;;;13.79;63.52;102084.25;5184646;28;20516;-86
2023/05/25 09:00:53;;;;;;;1.05;0.73;;;;;;;13.89;64.06;102091.97;5182315;28;20029;-85
2023/05/25 09:03:45;;;;;;;1.75;1.40;;;;;;;13.90;64.08;102088.44;5211950;28;20101;-85
2023/05/25 09:06:37;;;;;;;0.47;0.47;;;;;;;13.99;64.69;102085.63;5209026;28;20021;-85
2023/05/25 09:09:28;;;;;;;1.45;1.13;;;;;;;14.15;63.94;102087.06;5195789;28;20100;-86
2023/05/25 09:12:20;;;;;;;0.68;0.68;;;;;;;14.21;63.82;102082.56;5171045;28;20033;-86
2023/05/25 09:15:11;;;;;;;0.75;0.75;;;;;;;14.13;63.46;102095.94;5202326;28;20060;-86
2023/05/25 09:18:02;;;;;;;0.75;0.75;;;;;;;14.27;63.77;102087.69;5170762;28;20074;-84
2023/05/25 09:20:54;;;;;;;1.33;1.23;;;;;;;14.27;63.47;102091.22;5199259;28;20057;-85
2023/05/25 09:23:45;;;;;;;1.45;1.35;;;;;;;14.44;62.53;102095.28;5171520;28;20053;-86
2023/05/25 09:26:36;;;;;;;0.90;0.90;;;;;;;14.39;62.41;102090.09;5227161;28;20064;-84
2023/05/25 09:29:27;;;;;;;4.47;1.73;;;;;;;14.39;61.17;102090.09;5228625;28;20045;-84
2023/05/25 09:32:18;;;;;;;0.80;0.80;;;;;;;14.41;62.22;102093.59;5202671;28;20594;-85
2023/05/25 09:35:14;;;;;;;1.90;1.38;;;;;;;14.48;61.20;102100.47;5188853;28;20123;-86
2023/05/25 09:38:05;;;;;;;2.03;1.30;;;;;;;14.60;60.54;102091.41;5183989;28;20038;-86
2023/05/25 09:40:57;;;;;;;0.73;0.73;;;;;;;14.67;61.15;102100.06;5186986;28;20036;-86
2023/05/25 09:43:47;;;;;;;4.70;1.83;;;;;;;14.62;61.33;102097.53;5174913;28;20417;-87
2023/05/25 09:46:38;;;;;;;0.50;0.50;;;;;;;14.68;61.28;102098.31;5190563;28;20255;-87
2023/05/25 09:49:29;;;;;;;0.82;0.82;;;;;;;14.89;62.36;102094.31;5177046;28;20029;-87
2023/05/25 09:52:20;;;;;;;0.85;0.85;;;;;;;15.05;60.65;102089.53;5186734;28;20042;-86
2023/05/25 09:55:11;;;;;;;0.98;0.85;;;;;;;15.15;61.53;102084.91;5168846;28;20108;-86
2023/05/25 09:58:02;;;;;;;11.85;6.50;;;;;;;15.26;61.64;102093.41;5181308;28;20061;-86
2023/05/25 10:00:54;;;;;;;13.27;1.73;;;;;;;15.17;59.68;102098.94;5178464;28;20032;-87
2023/05/25 10:03:46;;;;;;;1.30;1.20;;;;;;;15.32;59.37;102097.69;5171866;28;20029;-87
2023/05/25 10:06:38;;;;;;;0.70;0.70;;;;;;;15.32;59.08;102095.03;5186516;28;20026;-87
2023/05/25 10:09:30;;;;;;;0.85;0.85;;;;;;;15.47;59.05;102096.44;5180468;28;20088;-85
2023/05/25 10:12:22;;;;;;;1.27;1.15;;;;;;;15.56;59.00;102093.56;5182455;28;20500;-86
2023/05/25 10:15:15;;;;;;;0.40;0.40;;;;;;;15.76;59.29;102100.09;5168302;28;20049;-85
2023/05/25 10:18:08;;;;;;;1.00;1.00;;;;;;;15.81;58.71;102101.69;5182064;28;20474;-85
2023/05/25 10:21:02;;;;;;;1.30;1.15;;;;;;;15.85;57.84;102102.53;5187362;28;20073;-84
2023/05/25 10:23:56;;;;;;;;;;;;;;;15.84;57.25;102098.13;5174122;28;20029;-83
2023/05/25 10:26:49;;;;;;;;;;;;;;;15.97;57.51;102096.03;5182925;28;19917;-85
2023/05/25 10:29:40;;;;;;;0.40;0.40;;;;;;;16.08;56.60;102099.25;5186348;28;20122;-85
2023/05/25 10:32:32;;;;;;;0.63;0.60;;;;;;;16.20;55.89;102095.38;5173039;28;20088;-85
2023/05/25 10:35:23;;;;;;;2.08;1.40;;;;;;;16.26;55.83;102094.34;5165607;28;20033;-85
2023/05/25 10:38:17;;;;;;;0.30;0.30;;;;;;;16.35;56.13;102091.41;5187149;28;20034;-86
2023/05/25 10:41:09;;;;;;;1.20;1.10;;;;;;;16.30;55.53;102102.16;5173667;28;20025;-86
2023/05/25 10:44:01;;;;;;;0.85;0.85;;;;;;;16.36;55.44;102104.59;5175364;28;20041;-85
2023/05/25 10:46:52;;;;;;;1.30;1.17;;;;;;;16.33;55.31;102096.75;5194914;28;20045;-86
2023/05/25 10:50:02;;;;;;;0.45;0.45;;;;;;;16.27;54.77;102104.03;5184424;28;20040;-84
2023/05/25 10:53:07;;;;;;;0.55;0.55;;;;;;;16.30;54.85;102103.91;5183729;28;20037;-85
2023/05/25 10:56:06;;;;;;;0.90;0.90;;;;;;;16.32;54.42;102102.09;5183808;28;20052;-88
2023/05/25 10:58:57;;;;;;;0.70;0.70;;;;;;;16.43;54.87;102096.47;5187499;28;20021;-86
2023/05/25 11:01:51;;;;;;;0.75;0.75;;;;;;;16.51;55.07;102099.75;5192534;28;20033;-86
2023/05/25 11:04:43;;;;;;;0.70;0.70;;;;;;;16.39;54.79;102093.06;5180236;28;20052;-86
2023/05/25 11:07:52;;;;;;;1.08;1.02;;;;;;;16.56;55.16;102095.22;5186722;28;20038;-87
2023/05/25 11:10:48;;;;;;;0.77;0.77;;;;;;;16.58;54.83;102096.00;5193957;28;20032;-87
2023/05/25 11:13:46;;;;;;;0.70;0.70;;;;;;;16.85;55.84;102090.78;5188975;28;20137;-88
2023/05/25 11:16:38;;;;;;;1.95;1.58;;;;;;;16.92;55.07;102097.59;5170687;28;20037;-87
2023/05/25 11:20:01;;;;;;;0.90;0.90;;;;;;;16.86;55.70;102097.81;5175713;28;20077;-87
2023/05/25 11:22:51;;;;;;;1.15;1.05;;;;;;;16.87;54.37;102096.00;5178601;28;20040;-87
2023/05/25 11:25:42;;;;;;;1.10;0.73;;;;;;;17.03;54.55;102107.03;5189425;28;20025;-87
2023/05/25 11:28:33;;;;;;;0.90;0.90;;;;;;;17.20;53.90;102102.06;5175911;28;20033;-87
2023/05/25 11:31:31;;;;;;;1.67;1.58;;;;;;;17.20;53.81;102106.47;5188219;28;20026;-89
2023/05/25 11:34:23;;;;;;;0.50;0.50;;;;;;;17.12;53.42;102104.94;5201233;28;20075;-88
2023/05/25 11:37:15;;;;;;;0.50;0.50;;;;;;;17.08;53.59;102091.84;5169444;28;20141;-87
2023/05/25 11:40:07;;;;;;;0.98;0.93;;;;;;;17.29;52.92;102088.50;5184844;28;20508;-87
2023/05/25 11:42:59;;;;;;;0.82;0.82;;;;;;;17.15;53.17;102090.72;5184368;28;20030;-87
2023/05/25 11:45:57;;;;;;;1.65;1.13;;;;;;;17.40;53.36;102088.13;5171964;28;20037;-88
2023/05/25 11:48:52;;;;;;;8.70;1.60;;;;;;;17.25;53.25;102100.13;5166442;28;20037;-85
2023/05/25 11:51:43;;;;;;;1.13;0.70;;;;;;;17.16;53.53;102092.47;5169803;28;20065;-86
2023/05/25 11:54:34;;;;;;;0.77;0.73;;;;;;;17.34;53.52;102087.47;5164638;28;20044;-86
2023/05/25 11:57:25;;;;;;;0.63;0.55;;;;;;;17.14;52.47;102091.66;5198252;28;20049;-85
2023/05/25 12:00:24;;;;;;;0.77;0.68;;;;;;;17.18;52.22;102090.63;5183515;28;20040;-85
2023/05/25 12:03:30;;;;;;;1.00;1.00;;;;;;;17.21;53.44;102092.31;5185280;28;20638;-86
2023/05/25 12:06:27;;;;;;;0.65;0.65;;;;;;;17.24;53.55;102095.72;5183445;28;20524;-86
2023/05/25 12:09:20;;;;;;;0.52;0.50;;;;;;;17.43;52.93;102087.16;5189042;28;20028;-86
2023/05/25 12:12:12;;;;;;;3.90;1.92;;;;;;;17.43;52.30;102092.47;5198302;28;20117;-85
2023/05/25 12:15:03;;;;;;;0.82;0.82;;;;;;;17.56;52.79;102092.91;5184832;28;20067;-87
2023/05/25 12:17:53;;;;;;;13.25;1.08;;;;;;;17.59;52.72;102087.50;5175621;28;20397;-87
2023/05/25 12:20:45;;;;;;;1.58;1.00;;;;;;;17.55;52.46;102073.47;5169105;28;20053;-86
2023/05/25 12:23:36;;;;;;;0.77;0.77;;;;;;;17.68;52.63;102076.56;5199438;28;20098;-85
2023/05/25 12:26:27;;;;;;;0.90;0.90;;;;;;;17.72;52.12;102078.19;5189176;28;20038;-87
2023/05/25 12:29:17;;;;;;;0.47;0.47;;;;;;;17.42;52.12;102080.09;5175071;28;20056;-86
2023/05/25 12:32:08;;;;;;;0.80;0.80;;;;;;;17.56;52.53;102075.19;5166509;28;20036;-87
2023/05/25 12:35:04;;;;;;;0.98;0.95;;;;;;;17.78;52.46;102085.06;5198480;28;20056;-87
2023/05/25 12:38:16;;;;;;;0.65;0.65;;;;;;;17.81;52.53;102070.81;5183443;28;20539;-87
2023/05/25 12:41:07;;;;;;;0.75;0.75;;;;;;;18.09;51.93;102068.03;5183339;28;20041;-86
2023/05/25 12:43:58;;;;;;;1.30;0.88;;;;;;;18.05;51.79;102079.72;5172951;28;20018;-86
2023/05/25 12:46:51;;;;;;;0.32;0.32;;;;;;;18.01;51.49;102073.66;5194734;28;20376;-87
2023/05/25 12:49:43;;;;;;;0.50;0.50;;;;;;;18.18;51.12;102065.03;5193066;28;20029;-86
2023/05/25 12:52:42;;;;;;;1.30;1.20;;;;;;;18.36;51.23;102068.78;5210159;28;20038;-86
2023/05/25 12:55:34;;;;;;;0.80;0.80;;;;;;;18.46;51.57;102071.97;5205045;28;20057;-86
2023/05/25 12:58:27;;;;;;;0.75;0.75;;;;;;;18.28;51.10;102059.38;5164439;28;20046;-86
2023/05/25 13:01:17;;;;;;;0.35;0.35;;;;;;;18.19;50.09;102066.78;5187524;28;20037;-86
2023/05/25 13:04:08;;;;;;;1.15;1.05;;;;;;;18.43;50.25;102064.09;5187476;28;20029;-86
2023/05/25 13:07:00;;;;;;;1.15;1.15;;;;;;;18.39;49.94;102059.81;5195627;28;20127;-87
2023/05/25 13:09:51;;;;;;;3.83;1.95;;;;;;;18.43;50.81;102066.75;5162698;28;20018;-89
2023/05/25 13:12:43;;;;;;;0.50;0.50;;;;;;;18.48;50.17;102067.41;5164613;28;20294;-86
2023/05/25 13:15:34;;;;;;;0.47;0.40;;;;;;;18.58;50.61;102065.28;5168821;28;20040;-86
2023/05/25 13:18:25;;;;;;;0.77;0.77;;;;;;;18.59;50.33;102063.50;5166577;28;20192;-86
2023/05/25 13:21:16;;;;;;;0.73;0.70;;;;;;;18.66;49.60;102067.63;5184348;28;20064;-87
2023/05/25 13:24:07;;;;;;;1.17;0.85;;;;;;;18.48;50.35;102056.78;5201929;28;20048;-87